Marshall, Missouri
Current Conditions -  °F | °C
As of 4:15 AM on Monday 24 Nov 2014 (Local Time) from KMHL Reporting Station
Overcast Overcast  
Wind Chill: 31°   Ceiling: 2800
Heat Index: 39°   Visibility: 10mi
Dew Point: 32°   Wind: 15mph
Humidity: 75%   Direction: 280°W
Pressure: 29.52"   Gusts: 29mph
Location:  39.12°N, 93.19°W
Report Text: KMHL 241015Z AUTO 28013G25KT 10SM OVC028 04/00 A2952 RMK AO2
Loading
Personal Weather Stations






























Interactive Weather Map New forecast layout! Learn more

10-Day Weather Forecast

Advertisements
Track Severe Weather on mobile